MST,Max TemperatureF,Mean TemperatureF,Min TemperatureF,Max Dew PointF,MeanDew PointF,Min DewpointF,Max Humidity, Mean Humidity, Min Humidity, Max Sea Level PressureIn, Mean Sea Level PressureIn, Min Sea Level PressureIn, Max VisibilityMiles, Mean VisibilityMiles, Min VisibilityMiles, Max Wind SpeedMPH, Mean Wind SpeedMPH, Max Gust SpeedMPH,PrecipitationIn, CloudCover, Events, WindDirDegrees
2013-11-1,49,40,30,36,31,24,89,68,46,30.08,29.90,29.70,10,10,10,31,16,39,0.02,4,Rain,294
2013-11-2,57,41,25,31,26,21,81,57,32,30.10,29.93,29.57,10,10,10,21,11,26,0.00,1,,168
2013-11-3,52,39,25,36,27,21,85,64,42,29.74,29.60,29.50,10,10,10,23,11,30,0.00,1,,275
2013-11-4,39,30,21,23,17,12,78,57,35,30.15,29.95,29.73,10,10,10,32,20,43,0.00,2,,284
2013-11-5,41,32,23,22,17,10,88,63,38,30.24,30.11,30.03,10,10,10,15,10,19,0.00,0,,236
2013-11-6,45,31,17,24,17,12,88,62,36,30.31,30.15,30.06,10,10,10,23,9,27,0.00,1,,271
2013-11-7,47,34,20,25,21,13,81,58,34,30.33,30.18,29.81,10,10,10,20,11,27,0.00,1,,231
2013-11-8,50,41,31,38,32,23,85,67,48,29.90,29.68,29.55,10,10,10,37,18,44,0.01,6,Rain,278
2013-11-9,37,28,19,30,22,15,89,71,52,30.33,30.14,29.87,10,10,10,29,15,37,0.00,4,,282
2013-11-10,39,28,17,26,18,12,81,70,59,30.45,30.27,30.14,10,6,1,18,13,23,0.03,7,Snow,25
2013-11-11,24,14,4,12,8,0,80,67,54,30.75,30.62,30.36,10,9,2,9,5,11,0.00,2,Snow,40
2013-11-12,50,32,13,34,22,8,84,70,56,30.67,30.41,30.09,10,10,10,20,12,23,0.00,0,,198
2013-11-13,56,47,37,36,32,29,70,59,47,30.05,29.99,29.91,10,10,10,20,12,24,0.00,1,,266
2013-11-14,51,38,25,30,27,20,85,64,42,29.93,29.85,29.74,10,10,10,23,11,29,0.00,0,,258
2013-11-15,54,40,26,30,23,20,81,56,30,29.72,29.52,29.35,10,10,10,22,10,26,0.00,0,,212
2013-11-16,43,34,25,34,28,19,92,73,53,29.42,29.34,29.31,10,7,0,16,4,26,T,6,Fog-Rain,257
2013-11-17,35,26,17,32,26,14,92,82,72,30.03,29.66,29.38,10,9,2,26,12,31,T,6,,292
2013-11-18,52,33,14,27,20,11,88,59,30,30.07,30.00,29.83,10,10,10,18,9,20,0.00,0,,187
2013-11-19,52,41,29,29,26,23,78,60,41,29.79,29.63,29.51,10,10,10,16,8,20,0.00,1,,216
2013-11-20,32,19,5,23,8,-1,88,75,62,30.50,30.06,29.68,10,6,1,24,15,30,T,7,Snow,333
2013-11-21,18,7,-5,4,-2,-10,82,66,49,30.71,30.64,30.53,10,10,10,21,12,25,0.00,0,,259
2013-11-22,20,8,-4,10,3,-8,86,73,59,30.86,30.68,30.49,10,9,4,20,9,24,T,4,Snow,346
2013-11-23,30,14,-3,16,8,-8,83,68,53,30.87,30.64,30.27,10,10,10,18,11,22,0.00,3,,177
2013-11-24,44,31,18,24,20,12,73,57,40,30.21,30.03,29.93,10,10,10,25,14,30,0.00,1,,266
2013-11-25,34,28,21,21,18,13,84,70,56,30.41,30.25,30.07,10,10,10,25,16,30,0.00,2,,300
2013-11-26,26,17,8,12,8,4,88,65,42,30.56,30.43,30.22,10,10,9,21,9,26,0.00,1,,293
2013-11-27,38,30,21,23,18,8,81,67,52,30.27,30.09,29.94,10,10,10,26,17,33,0.00,3,,303
2013-11-28,28,24,20,17,16,14,81,72,63,30.38,30.29,30.15,10,10,10,17,9,22,0.00,4,,146
2013-11-29,49,32,15,26,20,12,88,64,39,30.12,30.04,29.97,10,10,10,21,12,26,0.00,0,,253
2013-11-30,39,31,23,29,25,20,88,76,64,30.19,30.14,30.06,10,10,9,8,4,,T,6,Snow,206